EST,Max TemperatureF,Mean TemperatureF,Min TemperatureF,Max Dew PointF,MeanDew PointF,Min DewpointF,Max Humidity, Mean Humidity, Min Humidity, Max Sea Level PressureIn, Mean Sea Level PressureIn, Min Sea Level PressureIn, Max VisibilityMiles, Mean VisibilityMiles, Min VisibilityMiles, Max Wind SpeedMPH, Mean Wind SpeedMPH, Max Gust SpeedMPH,PrecipitationIn, CloudCover, Events, WindDirDegrees
2013-2-1,54,42,30,33,21,9,52,41,21,30.40,30.16,30.02,10,10,10,28,16,37,0.00,0,,302
2013-2-2,44,34,25,38,19,7,86,56,24,30.42,30.28,30.04,10,10,10,7,4,,0.00,0,,348
2013-2-3,52,43,34,42,33,29,89,67,43,30.03,29.94,29.86,10,10,10,17,9,20,0.00,3,,296
2013-2-4,48,40,33,39,26,19,74,55,32,30.16,30.09,30.01,10,10,10,10,7,,0.00,0,,291
2013-2-5,59,50,42,48,43,37,86,71,53,30.05,29.98,29.90,10,10,10,17,7,21,0.00,0,,240
2013-2-6,64,54,44,47,41,34,97,70,33,30.26,30.13,29.99,10,9,7,12,4,,0.00,0,,20
2013-2-7,60,52,45,55,51,42,100,89,64,30.27,30.12,29.89,10,5,2,20,10,34,1.75,6,Rain,52
2013-2-8,62,55,48,63,53,40,100,88,71,29.98,29.68,29.46,10,7,1,29,15,37,2.01,6,Rain,271
2013-2-9,53,46,35,32,27,24,72,52,34,30.37,30.20,30.00,10,10,10,23,16,26,0.00,0,,336
2013-2-10,54,42,30,46,35,26,90,72,47,30.48,30.40,30.31,10,10,10,9,3,,0.00,1,,54
2013-2-11,62,56,50,61,57,47,100,91,78,30.31,30.08,29.96,10,6,2,22,13,31,0.13,6,Rain,215
2013-2-12,61,58,53,57,50,40,96,79,46,30.07,30.00,29.95,10,10,8,14,9,23,0.06,3,Rain,258
2013-2-13,57,52,48,56,51,46,100,94,82,29.98,29.74,29.64,10,6,1,17,6,21,0.45,8,Rain,308
2013-2-14,51,47,43,46,40,35,89,75,57,30.09,29.98,29.81,10,10,9,15,9,22,0.00,1,,345
2013-2-15,55,47,39,41,38,34,96,74,44,30.10,30.03,29.97,10,10,5,8,4,,0.00,0,,38
2013-2-16,53,44,35,44,38,34,100,84,66,29.96,29.81,29.68,10,9,2,30,9,38,0.07,5,Rain-Snow,346
2013-2-17,39,36,32,34,23,12,93,66,36,30.30,30.02,29.83,10,9,5,28,19,34,0.00,4,Snow,310
2013-2-18,48,36,27,36,18,10,61,44,27,30.46,30.38,30.32,10,10,10,14,8,,0.00,0,,281
2013-2-19,61,49,37,55,49,36,100,85,64,30.31,30.04,29.91,10,8,2,21,10,33,0.27,5,Rain,214
2013-2-20,55,48,39,43,32,17,89,60,23,30.12,30.05,29.96,10,10,10,14,9,21,0.00,0,,286
2013-2-21,52,42,33,35,30,23,93,62,39,30.26,30.17,30.09,10,10,10,13,5,,0.00,0,,9
2013-2-22,52,44,39,50,38,28,100,77,60,30.33,30.22,30.09,10,10,9,12,8,17,0.00,6,Rain,52
2013-2-23,62,55,48,63,54,46,100,97,88,30.07,29.91,29.82,10,5,2,15,7,25,0.70,8,Rain,260
2013-2-24,61,52,44,49,47,43,100,92,53,30.00,29.89,29.77,10,5,0,14,7,,0.00,4,Fog,303
2013-2-25,45,42,39,45,36,31,100,78,58,30.19,30.10,30.00,10,7,0,17,7,25,0.00,2,Fog,35
2013-2-26,68,56,43,66,58,38,100,92,80,30.09,29.80,29.61,10,4,0,39,13,66,1.38,8,Fog-Rain,137
2013-2-27,57,54,51,57,48,41,100,82,66,29.81,29.72,29.63,10,8,2,18,10,26,0.00,2,,242
2013-2-28,55,50,45,46,39,31,80,65,50,29.83,29.75,29.70,10,10,10,14,11,18,0.00,2,,277